createdAt,value
2019-05-06T00:02:04.588Z,14.60
2019-05-06T00:04:35.394Z,14.63
2019-05-06T00:07:07.043Z,14.67
2019-05-06T00:09:37.677Z,14.69
2019-05-06T00:12:08.517Z,14.69
2019-05-06T00:14:39.270Z,14.65
2019-05-06T00:17:10.017Z,14.60
2019-05-06T00:19:40.938Z,14.56
2019-05-06T00:22:14.062Z,14.56
2019-05-06T00:24:45.651Z,14.54
2019-05-06T00:27:17.880Z,14.52
2019-05-06T00:29:48.858Z,14.49
2019-05-06T00:32:19.608Z,14.47
2019-05-06T00:34:54.617Z,14.41
2019-05-06T00:37:25.581Z,14.39
2019-05-06T00:40:01.113Z,14.47
2019-05-06T00:42:34.668Z,14.43
2019-05-06T00:45:07.909Z,14.40
2019-05-06T00:47:38.317Z,14.39
2019-05-06T00:50:10.229Z,14.40
2019-05-06T00:52:42.035Z,14.40
2019-05-06T00:55:13.724Z,14.42
2019-05-06T00:57:44.624Z,14.42
2019-05-06T01:00:17.966Z,14.43
2019-05-06T01:02:49.076Z,14.42
2019-05-06T01:05:20.518Z,14.41
2019-05-06T01:07:51.354Z,14.39
2019-05-06T01:10:23.809Z,14.38
2019-05-06T01:13:05.517Z,14.37
2019-05-06T01:15:36.148Z,14.36
2019-05-06T01:18:08.830Z,14.38
2019-05-06T01:20:42.008Z,14.33
2019-05-06T01:23:14.350Z,14.36
2019-05-06T01:25:45.829Z,14.32
2019-05-06T01:28:17.029Z,14.26
2019-05-06T01:30:48.009Z,14.28
2019-05-06T01:33:18.723Z,14.24
2019-05-06T01:35:51.016Z,14.20
2019-05-06T01:38:29.219Z,14.15
2019-05-06T01:41:04.348Z,14.12
2019-05-06T01:43:43.866Z,14.07
2019-05-06T01:46:15.445Z,14.04
2019-05-06T01:48:48.662Z,14.04
2019-05-06T01:51:21.491Z,14.03
2019-05-06T01:53:54.183Z,13.98
2019-05-06T01:56:24.623Z,13.97
2019-05-06T01:58:55.558Z,13.97
2019-05-06T02:01:26.499Z,13.98
2019-05-06T02:03:57.241Z,13.89
2019-05-06T02:06:28.170Z,13.93
2019-05-06T02:08:59.013Z,13.91
2019-05-06T02:11:30.553Z,13.84
2019-05-06T02:14:01.042Z,13.83
2019-05-06T02:16:34.107Z,13.81
2019-05-06T02:19:04.696Z,13.82
2019-05-06T02:21:43.908Z,13.79
2019-05-06T02:24:24.307Z,13.82
2019-05-06T02:26:55.006Z,13.80
2019-05-06T02:29:43.500Z,13.83
2019-05-06T02:32:35.807Z,13.79
2019-05-06T02:35:26.474Z,13.83
2019-05-06T02:37:58.258Z,13.77
2019-05-06T02:40:33.011Z,13.77
2019-05-06T02:43:03.464Z,13.78
2019-05-06T02:45:34.554Z,13.77
2019-05-06T02:48:07.843Z,13.81
2019-05-06T02:50:46.204Z,13.81
2019-05-06T02:53:18.629Z,13.82
2019-05-06T02:55:53.175Z,13.86
2019-05-06T02:58:24.057Z,13.94
2019-05-06T03:00:55.543Z,14.02
2019-05-06T03:03:26.373Z,14.08
2019-05-06T03:05:57.206Z,14.14
2019-05-06T03:08:28.041Z,14.20
2019-05-06T03:10:59.108Z,14.20
2019-05-06T03:13:29.843Z,14.27
2019-05-06T03:16:05.384Z,14.34
2019-05-06T03:18:35.297Z,14.38
2019-05-06T03:21:25.984Z,14.42
2019-05-06T03:24:04.026Z,14.44
2019-05-06T03:26:35.934Z,14.41
2019-05-06T03:29:06.464Z,14.24
2019-05-06T03:31:37.590Z,14.17
2019-05-06T03:34:35.575Z,14.12
2019-05-06T03:36:48.037Z,14.12
2019-05-06T03:39:13.930Z,14.09
2019-05-06T03:41:44.942Z,14.09
2019-05-06T03:44:16.922Z,14.11
2019-05-06T03:47:07.230Z,14.25
2019-05-06T03:49:51.307Z,14.42
2019-05-06T03:52:23.393Z,14.45
2019-05-06T03:54:56.279Z,14.50
2019-05-06T03:57:29.217Z,14.68
2019-05-06T04:00:04.311Z,14.69
2019-05-06T04:02:33.779Z,14.83
2019-05-06T04:05:05.710Z,14.87
2019-05-06T04:07:36.848Z,14.94
2019-05-06T04:10:07.838Z,14.98
2019-05-06T04:12:38.993Z,15.00
2019-05-06T04:15:14.206Z,14.97
2019-05-06T04:17:53.838Z,14.95
2019-05-06T04:20:28.208Z,14.97
2019-05-06T04:23:13.568Z,14.96
2019-05-06T04:25:55.660Z,15.02
2019-05-06T04:28:28.744Z,14.96
2019-05-06T04:30:59.472Z,15.06
2019-05-06T04:33:33.133Z,15.11
2019-05-06T04:36:03.629Z,15.09
2019-05-06T04:38:36.396Z,15.08
2019-05-06T04:41:07.119Z,15.16
2019-05-06T04:43:38.155Z,15.35
2019-05-06T04:46:09.419Z,15.30
2019-05-06T04:48:40.031Z,15.20
2019-05-06T04:51:13.726Z,15.31
2019-05-06T04:53:44.885Z,15.38
2019-05-06T04:56:16.933Z,15.40
2019-05-06T04:58:49.660Z,15.43
2019-05-06T05:01:23.184Z,15.50
2019-05-06T05:03:55.687Z,15.56
2019-05-06T05:06:26.762Z,15.70
2019-05-06T05:08:58.072Z,15.89
2019-05-06T05:11:33.400Z,15.96
2019-05-06T05:14:25.599Z,16.05
2019-05-06T05:17:03.113Z,16.13
2019-05-06T05:19:34.097Z,16.31
2019-05-06T05:22:09.416Z,16.43
2019-05-06T05:24:42.380Z,16.71
2019-05-06T05:27:12.932Z,16.86
2019-05-06T05:29:43.784Z,16.75
2019-05-06T05:32:15.477Z,16.69
2019-05-06T05:34:46.866Z,16.75
2019-05-06T05:37:17.801Z,16.86
2019-05-06T05:39:49.381Z,16.76
2019-05-06T05:42:22.238Z,17.10
2019-05-06T05:44:54.217Z,17.38
2019-05-06T05:47:25.137Z,17.51
2019-05-06T05:50:10.437Z,17.52
2019-05-06T05:52:43.702Z,17.57
2019-05-06T05:55:15.973Z,17.63
2019-05-06T05:57:51.996Z,17.63
2019-05-06T06:00:24.607Z,17.49
2019-05-06T06:02:55.952Z,17.50
2019-05-06T06:05:26.480Z,17.52
2019-05-06T06:07:58.909Z,17.57
2019-05-06T06:10:43.416Z,17.62
2019-05-06T06:13:14.264Z,17.71
2019-05-06T06:15:49.492Z,17.86
2019-05-06T06:18:43.097Z,18.09
2019-05-06T06:21:25.667Z,18.30
2019-05-06T06:23:52.935Z,18.38
2019-05-06T06:26:24.975Z,18.30
2019-05-06T06:28:59.270Z,18.32
2019-05-06T06:31:35.170Z,18.46
2019-05-06T06:34:09.425Z,18.85
2019-05-06T06:36:43.701Z,18.86
2019-05-06T06:39:19.075Z,19.25
2019-05-06T06:41:51.940Z,19.42
2019-05-06T06:44:32.938Z,19.57
2019-05-06T06:47:03.357Z,19.75
2019-05-06T06:49:34.898Z,19.48
2019-05-06T06:52:11.189Z,19.81
2019-05-06T06:54:38.956Z,19.97
2019-05-06T06:57:17.646Z,20.17
2019-05-06T06:59:53.044Z,20.20
2019-05-06T07:02:25.697Z,20.14
2019-05-06T07:05:02.416Z,20.11
2019-05-06T07:07:43.449Z,20.10
2019-05-06T07:10:12.029Z,20.20
2019-05-06T07:12:42.766Z,20.50
2019-05-06T07:15:13.876Z,20.63
2019-05-06T07:17:45.001Z,20.32
2019-05-06T07:20:22.892Z,20.45
2019-05-06T07:22:53.742Z,20.62
2019-05-06T07:25:24.586Z,20.74
2019-05-06T07:27:56.745Z,21.02
2019-05-06T07:30:35.256Z,21.27
2019-05-06T07:33:06.124Z,21.24
2019-05-06T07:35:41.076Z,21.68
2019-05-06T07:38:13.073Z,21.52
2019-05-06T07:40:45.056Z,21.61
2019-05-06T07:43:29.608Z,21.77
2019-05-06T07:46:02.510Z,22.20
2019-05-06T07:48:33.544Z,22.64
2019-05-06T07:51:08.972Z,23.14
2019-05-06T07:53:42.669Z,23.31
2019-05-06T07:56:43.134Z,23.64
2019-05-06T07:59:13.993Z,23.58
2019-05-06T08:01:45.125Z,23.64
2019-05-06T08:08:03.542Z,23.75
2019-05-06T08:10:34.367Z,23.87
2019-05-06T08:13:04.994Z,24.27
2019-05-06T08:15:36.827Z,23.80
2019-05-06T08:18:07.580Z,23.96
2019-05-06T08:23:56.074Z,24.29
2019-05-06T08:26:26.867Z,24.67
2019-05-06T08:28:59.341Z,24.84
2019-05-06T08:31:29.914Z,24.87
2019-05-06T08:34:02.628Z,24.80
2019-05-06T08:36:35.278Z,23.97
2019-05-06T08:39:08.004Z,24.30
2019-05-06T08:41:38.737Z,24.08
2019-05-06T08:44:09.981Z,24.22
2019-05-06T08:46:43.205Z,24.33
2019-05-06T08:49:13.391Z,24.30
2019-05-06T08:51:46.614Z,24.57
2019-05-06T08:54:33.912Z,24.25
2019-05-06T08:57:04.762Z,24.39
2019-05-06T08:59:35.477Z,24.52
2019-05-06T09:02:07.609Z,24.86
2019-05-06T09:04:38.179Z,25.22
2019-05-06T09:07:09.109Z,25.73
2019-05-06T09:09:41.983Z,26.01
2019-05-06T09:12:14.565Z,26.35
2019-05-06T09:14:46.937Z,25.34
2019-05-06T09:17:17.770Z,25.83
2019-05-06T09:19:48.639Z,25.87
2019-05-06T09:22:20.564Z,26.16
2019-05-06T09:24:53.081Z,26.11
2019-05-06T09:27:42.307Z,25.21
2019-05-06T09:30:14.600Z,25.71
2019-05-06T09:32:45.201Z,26.54
2019-05-06T09:35:16.244Z,26.31
2019-05-06T09:37:47.180Z,25.55
2019-05-06T09:40:18.019Z,25.81
2019-05-06T09:42:49.159Z,25.87
2019-05-06T09:45:19.794Z,26.13
2019-05-06T09:47:55.055Z,26.66
2019-05-06T09:50:38.159Z,26.59
2019-05-06T09:53:12.955Z,26.92
2019-05-06T09:55:44.227Z,26.88
2019-05-06T09:58:14.871Z,27.35
2019-05-06T10:00:50.096Z,27.09
2019-05-06T10:03:22.629Z,26.14
2019-05-06T10:05:53.719Z,26.23
2019-05-06T10:08:24.551Z,27.02
2019-05-06T10:10:59.465Z,27.46
2019-05-06T10:13:27.883Z,28.46
2019-05-06T10:15:58.546Z,29.32
2019-05-06T10:18:29.896Z,29.81
2019-05-06T10:21:00.598Z,29.47
2019-05-06T10:23:32.819Z,28.95
2019-05-06T10:26:06.339Z,28.38
2019-05-06T10:28:55.164Z,28.03
2019-05-06T10:31:26.133Z,28.27
2019-05-06T10:33:58.133Z,27.97
2019-05-06T10:36:33.431Z,27.38
2019-05-06T10:39:10.011Z,27.67
2019-05-06T10:41:43.643Z,27.38
2019-05-06T10:44:17.301Z,27.17
2019-05-06T10:46:48.586Z,27.47
2019-05-06T10:49:22.540Z,28.05
2019-05-06T10:51:54.126Z,27.80
2019-05-06T10:54:25.154Z,27.69
2019-05-06T10:57:12.636Z,27.17
2019-05-06T10:59:45.041Z,26.86
2019-05-06T11:02:28.069Z,26.35
2019-05-06T11:05:02.526Z,26.12
2019-05-06T11:07:35.255Z,26.87
2019-05-06T11:10:06.504Z,26.68
2019-05-06T11:12:37.645Z,26.37
2019-05-06T11:15:08.655Z,26.21
2019-05-06T11:17:39.426Z,26.81
2019-05-06T11:20:13.932Z,27.56
2019-05-06T11:22:44.513Z,27.99
2019-05-06T11:25:15.409Z,28.47
2019-05-06T11:27:46.067Z,28.58
2019-05-06T11:30:18.817Z,28.96
2019-05-06T11:32:50.992Z,30.27
2019-05-06T11:35:33.492Z,30.55
2019-05-06T11:38:05.659Z,30.70
2019-05-06T11:40:36.902Z,30.35
2019-05-06T11:43:07.659Z,29.69
2019-05-06T11:45:38.579Z,28.72
2019-05-06T11:48:09.311Z,29.94
2019-05-06T11:50:42.758Z,29.99
2019-05-06T11:53:13.947Z,30.03
2019-05-06T11:55:46.173Z,29.66
2019-05-06T11:58:34.989Z,31.93
2019-05-06T12:01:16.849Z,33.03
2019-05-06T12:03:47.700Z,32.91
2019-05-06T12:06:22.482Z,33.01
2019-05-06T12:08:53.482Z,33.21
2019-05-06T12:11:24.002Z,31.61
2019-05-06T12:13:54.828Z,32.02
2019-05-06T12:16:26.429Z,30.88
2019-05-06T12:18:59.728Z,30.63
2019-05-06T12:21:29.586Z,29.60
2019-05-06T12:24:02.912Z,28.36
2019-05-06T12:26:32.965Z,28.59
2019-05-06T12:29:03.944Z,27.82
2019-05-06T12:31:35.487Z,28.92
2019-05-06T12:34:06.255Z,29.50
2019-05-06T12:36:36.851Z,30.18
2019-05-06T12:39:17.440Z,30.14
2019-05-06T12:42:06.090Z,29.72
2019-05-06T12:44:38.746Z,28.36
2019-05-06T12:47:22.993Z,28.21
2019-05-06T12:49:53.775Z,28.81
2019-05-06T12:52:25.481Z,30.64
2019-05-06T12:55:16.376Z,29.35
2019-05-06T12:57:29.198Z,29.06
2019-05-06T12:59:59.833Z,28.92
2019-05-06T13:02:32.803Z,28.96
2019-05-06T13:05:04.235Z,28.75
2019-05-06T13:07:43.655Z,28.44
2019-05-06T13:10:18.342Z,27.73
2019-05-06T13:12:50.394Z,26.86
2019-05-06T13:15:24.325Z,26.61
2019-05-06T13:17:56.054Z,25.97
2019-05-06T13:20:29.012Z,25.91
2019-05-06T13:23:07.467Z,26.15
2019-05-06T13:25:33.585Z,26.23
2019-05-06T13:28:05.972Z,26.17
2019-05-06T13:30:36.842Z,26.41
2019-05-06T13:33:25.839Z,25.80
2019-05-06T13:35:56.714Z,25.82
2019-05-06T13:38:27.525Z,26.03
2019-05-06T13:40:57.892Z,25.83
2019-05-06T13:43:36.017Z,26.10
2019-05-06T13:46:18.962Z,26.11
2019-05-06T13:49:03.314Z,26.06
2019-05-06T13:51:38.765Z,25.64
2019-05-06T13:54:13.641Z,25.58
2019-05-06T13:56:43.198Z,25.69
2019-05-06T13:59:14.547Z,25.68
2019-05-06T14:01:46.721Z,25.58
2019-05-06T14:04:17.856Z,25.49
2019-05-06T14:06:49.826Z,25.64
2019-05-06T14:09:29.553Z,25.58
2019-05-06T14:11:52.759Z,25.40
2019-05-06T14:14:23.671Z,25.59
2019-05-06T14:16:54.505Z,25.43
2019-05-06T14:19:25.425Z,25.45
2019-05-06T14:21:56.363Z,25.36
2019-05-06T14:24:27.415Z,25.46
2019-05-06T14:27:02.731Z,25.52
2019-05-06T14:29:53.417Z,25.63
2019-05-06T14:32:24.303Z,25.52
2019-05-06T14:34:55.321Z,25.17
2019-05-06T14:37:26.029Z,24.95
2019-05-06T14:39:59.640Z,24.87
2019-05-06T14:42:29.807Z,24.93
2019-05-06T14:45:01.080Z,25.65
2019-05-06T14:47:42.715Z,27.17
2019-05-06T14:50:16.421Z,28.46
2019-05-06T14:52:48.164Z,28.95
2019-05-06T14:55:22.583Z,29.01
2019-05-06T14:57:53.870Z,29.65
2019-05-06T15:00:25.862Z,31.04
2019-05-06T15:03:02.182Z,31.84
2019-05-06T15:05:36.091Z,32.59
2019-05-06T15:08:06.278Z,33.00
2019-05-06T15:10:39.175Z,33.74
2019-05-06T15:13:12.500Z,33.44
2019-05-06T15:15:43.040Z,32.25
2019-05-06T15:18:13.894Z,32.62
2019-05-06T15:20:44.965Z,32.51
2019-05-06T15:23:15.794Z,32.39
2019-05-06T15:25:46.729Z,32.32
2019-05-06T15:28:22.591Z,32.36
2019-05-06T15:31:12.335Z,31.94
2019-05-06T15:33:46.889Z,31.88
2019-05-06T15:36:19.364Z,31.47
2019-05-06T15:38:52.626Z,29.62
2019-05-06T15:41:22.767Z,30.17
2019-05-06T15:43:53.650Z,29.81
2019-05-06T15:46:24.344Z,29.60
2019-05-06T15:48:55.376Z,29.74
2019-05-06T15:51:34.922Z,29.71
2019-05-06T15:54:06.404Z,29.70
2019-05-06T15:56:36.893Z,29.19
2019-05-06T15:59:08.034Z,29.08
2019-05-06T16:01:39.273Z,29.25
2019-05-06T16:04:12.128Z,29.02
2019-05-06T16:06:44.710Z,27.79
2019-05-06T16:09:14.713Z,27.73
2019-05-06T16:11:45.689Z,27.65
2019-05-06T16:14:16.624Z,27.46
2019-05-06T16:16:47.369Z,27.17
2019-05-06T16:19:18.504Z,26.96
2019-05-06T16:21:52.111Z,26.58
2019-05-06T16:24:23.608Z,26.36
2019-05-06T16:26:56.096Z,25.54
2019-05-06T16:29:37.303Z,25.17
2019-05-06T16:32:09.395Z,24.76
2019-05-06T16:34:39.899Z,24.25
2019-05-06T16:37:12.586Z,23.74
2019-05-06T16:39:43.303Z,23.48
2019-05-06T16:42:14.039Z,23.30
2019-05-06T16:44:45.412Z,22.80
2019-05-06T16:47:17.858Z,22.58
2019-05-06T16:49:48.792Z,22.33
2019-05-06T16:52:19.631Z,22.10
2019-05-06T16:54:52.194Z,21.97
2019-05-06T16:57:23.282Z,21.70
2019-05-06T16:59:53.877Z,21.58
2019-05-06T17:02:26.667Z,21.37
2019-05-06T17:05:05.176Z,21.21
2019-05-06T17:07:36.217Z,21.14
2019-05-06T17:10:07.181Z,21.05
2019-05-06T17:12:37.702Z,20.89
2019-05-06T17:15:09.327Z,20.85
2019-05-06T17:17:44.436Z,20.76
2019-05-06T17:20:12.911Z,20.61
2019-05-06T17:22:43.392Z,20.51
2019-05-06T17:25:14.818Z,20.46
2019-05-06T17:27:48.521Z,20.44
2019-05-06T17:30:22.535Z,20.38
2019-05-06T17:32:55.085Z,20.34
2019-05-06T17:35:25.942Z,20.23
2019-05-06T17:37:58.390Z,20.16
2019-05-06T17:40:29.459Z,20.08
2019-05-06T17:43:03.268Z,20.03
2019-05-06T17:46:01.165Z,19.92
2019-05-06T17:48:38.209Z,19.86
2019-05-06T17:51:13.071Z,19.79
2019-05-06T17:53:49.105Z,19.75
2019-05-06T17:56:22.097Z,19.67
2019-05-06T17:58:53.196Z,19.59
2019-05-06T18:01:32.623Z,19.53
2019-05-06T18:04:03.804Z,19.45
2019-05-06T18:06:35.049Z,19.39
2019-05-06T18:09:08.573Z,19.32
2019-05-06T18:11:42.390Z,19.24
2019-05-06T18:14:14.102Z,19.19
2019-05-06T18:16:45.166Z,19.12
2019-05-06T18:19:16.177Z,19.11
2019-05-06T18:21:47.221Z,19.05
2019-05-06T18:24:17.959Z,18.96
2019-05-06T18:26:49.616Z,18.89
2019-05-06T18:29:22.201Z,18.79
2019-05-06T18:31:52.788Z,18.80
2019-05-06T18:34:24.056Z,18.74
2019-05-06T18:36:56.360Z,18.70
2019-05-06T18:39:27.264Z,18.68
2019-05-06T18:42:12.430Z,18.61
2019-05-06T18:44:33.124Z,18.54
2019-05-06T18:47:03.011Z,18.49
2019-05-06T18:49:36.413Z,18.47
2019-05-06T18:52:07.088Z,18.39
2019-05-06T18:54:37.902Z,18.36
2019-05-06T18:57:08.519Z,18.23
2019-05-06T18:59:42.471Z,18.19
2019-05-06T19:02:13.332Z,18.10
2019-05-06T19:04:45.431Z,18.03
2019-05-06T19:07:17.147Z,17.98
2019-05-06T19:09:52.194Z,17.94
2019-05-06T19:12:31.861Z,17.87
2019-05-06T19:14:54.923Z,17.83
2019-05-06T19:17:26.259Z,17.80
2019-05-06T19:19:58.436Z,17.74
2019-05-06T19:22:29.108Z,17.74
2019-05-06T19:25:02.463Z,17.63
2019-05-06T19:27:33.402Z,17.58
2019-05-06T19:30:07.003Z,17.59
2019-05-06T19:32:38.141Z,17.58
2019-05-06T19:35:13.195Z,17.56
2019-05-06T19:37:45.761Z,17.52
2019-05-06T19:40:16.585Z,17.51
2019-05-06T19:42:50.141Z,17.49
2019-05-06T19:45:22.459Z,17.51
2019-05-06T19:47:52.977Z,17.50
2019-05-06T19:50:26.069Z,17.52
2019-05-06T19:52:57.208Z,17.53
2019-05-06T19:55:27.842Z,17.53
2019-05-06T19:57:59.496Z,17.55
2019-05-06T20:00:32.464Z,17.57
2019-05-06T20:03:04.313Z,17.59
2019-05-06T20:05:42.546Z,17.59
2019-05-06T20:08:15.327Z,17.58
2019-05-06T20:10:56.898Z,17.53
2019-05-06T20:13:29.387Z,17.53
2019-05-06T20:16:02.257Z,17.56
2019-05-06T20:18:33.006Z,17.60
2019-05-06T20:21:04.046Z,17.56
2019-05-06T20:23:34.672Z,17.52
2019-05-06T20:26:05.716Z,17.43
2019-05-06T20:28:37.158Z,17.40
2019-05-06T20:31:07.695Z,17.42
2019-05-06T20:33:38.451Z,17.41
2019-05-06T20:36:09.105Z,17.45
2019-05-06T20:38:42.353Z,17.49
2019-05-06T20:41:13.386Z,17.47
2019-05-06T20:43:44.632Z,17.43
2019-05-06T20:46:15.780Z,17.44
2019-05-06T20:48:46.627Z,17.45
2019-05-06T20:51:21.948Z,17.53
2019-05-06T20:53:52.695Z,17.57
2019-05-06T20:56:23.726Z,17.58
2019-05-06T20:58:56.393Z,17.57
2019-05-06T21:01:27.740Z,17.59
2019-05-06T21:03:58.780Z,17.58
2019-05-06T21:06:29.614Z,17.59
2019-05-06T21:09:02.136Z,17.56
2019-05-06T21:11:32.739Z,17.57
2019-05-06T21:14:03.559Z,17.57
2019-05-06T21:16:34.548Z,17.60
2019-05-06T21:19:06.962Z,17.59
2019-05-06T21:21:37.610Z,17.63
2019-05-06T21:24:08.546Z,17.62
2019-05-06T21:26:39.375Z,17.64
2019-05-06T21:29:10.098Z,17.61
2019-05-06T21:31:42.303Z,17.63
2019-05-06T21:34:13.000Z,17.58
2019-05-06T21:36:43.938Z,17.62
2019-05-06T21:39:14.972Z,17.60
2019-05-06T21:41:45.604Z,17.56
2019-05-06T21:44:16.438Z,17.58
2019-05-06T21:46:47.173Z,17.56
2019-05-06T21:49:19.428Z,17.57
2019-05-06T21:51:49.867Z,17.52
2019-05-06T21:54:23.020Z,17.53
2019-05-06T21:56:53.353Z,17.50
2019-05-06T21:59:24.114Z,17.52
2019-05-06T22:01:55.273Z,17.43
2019-05-06T22:04:25.987Z,17.40
2019-05-06T22:06:56.850Z,17.39
2019-05-06T22:09:27.519Z,17.38
2019-05-06T22:11:58.798Z,17.35
2019-05-06T22:14:29.425Z,17.31
2019-05-06T22:17:03.900Z,17.29
2019-05-06T22:19:32.322Z,17.30
2019-05-06T22:22:07.675Z,17.27
2019-05-06T22:24:48.635Z,17.23
2019-05-06T22:27:19.473Z,17.20
2019-05-06T22:29:52.247Z,17.22
2019-05-06T22:32:23.787Z,17.21
2019-05-06T22:34:54.327Z,17.19
2019-05-06T22:37:25.165Z,17.16
2019-05-06T22:39:56.000Z,17.13
2019-05-06T22:42:28.696Z,17.11
2019-05-06T22:44:59.399Z,17.08
2019-05-06T22:47:32.381Z,17.06
2019-05-06T22:50:03.863Z,17.10
2019-05-06T22:52:36.320Z,17.12
2019-05-06T22:55:07.793Z,17.16
2019-05-06T22:57:38.499Z,17.19
2019-05-06T23:00:12.190Z,17.16
2019-05-06T23:02:44.677Z,17.10
2019-05-06T23:05:15.712Z,17.13
2019-05-06T23:07:46.552Z,17.19
2019-05-06T23:10:17.283Z,17.20
2019-05-06T23:12:47.708Z,17.15
2019-05-06T23:15:18.634Z,17.10
2019-05-06T23:17:52.675Z,17.09
2019-05-06T23:20:24.466Z,17.04
2019-05-06T23:22:55.548Z,17.00
2019-05-06T23:25:26.284Z,17.04
2019-05-06T23:27:57.225Z,17.03
2019-05-06T23:30:27.748Z,17.06
2019-05-06T23:32:58.293Z,17.06
2019-05-06T23:35:29.010Z,17.08
2019-05-06T23:38:35.710Z,17.08
2019-05-06T23:41:43.194Z,17.07
2019-05-06T23:44:54.518Z,17.05
2019-05-06T23:47:59.428Z,17.04
2019-05-06T23:51:06.478Z,17.02
2019-05-06T23:54:13.885Z,17.01
2019-05-06T23:56:46.821Z,16.96
2019-05-06T23:59:18.821Z,16.92
